Have a Safe July 4th! 

Flight Track Log - Related Links

Times and Time Zones

All times are in EDT time to prevent confusion due to time zone crossing. See the SWA2236 flight status page for this flight to view local times or setup timezone preferences in your user account.

Time Position Orientation Groundspeed Altitude Reporting Facility
EDT Latitude Longitude Course Direction KTS MPH feet Rate Location/Type
Thu 09:15:09 AM 35.0667 -106.5575 58° Northeast 223 257 7,100  Level Albuquerque Center
Thu 09:15:42 AM 35.0933 -106.5950 311° West 240 276 8,600 2,083 Climbing Albuquerque Center
Thu 09:17:10 AM 35.1211 -106.7211 285° West 279 321 11,300 2,497 Climbing Albuquerque Center
Thu 09:18:11 AM 35.1458 -106.8633 282° West 359 413 14,800 3,197 Climbing Albuquerque Center
Thu 09:19:12 AM 35.1669 -106.9869 282° West 379 436 17,800 2,557 Climbing Albuquerque Center
Thu 09:20:13 AM 35.1925 -107.1164 284° West 370 426 20,000 1,426 Climbing Albuquerque Center
Thu 09:21:14 AM 35.2103 -107.2478 279° West 419 482 20,700 1,672 Climbing Albuquerque Center
Thu 09:22:15 AM 35.2233 -107.3856 277° West 414 476 23,400 2,459 Climbing Albuquerque Center
Thu 09:23:16 AM 35.2372 -107.5439 276° West 418 481 25,700 1,967 Climbing Albuquerque Center
Thu 09:24:17 AM 35.2492 -107.6856 276° West 431 496 27,400 1,672 Climbing Albuquerque Center
Thu 09:25:18 AM 35.2611 -107.8317 276° West 445 512 29,100 1,672 Climbing Albuquerque Center
Thu 09:26:19 AM 35.2775 -108.0039 277° West 454 522 30,800 1,672 Climbing Albuquerque Center
Thu 09:27:20 AM 35.2903 -108.1575 276° West 465 535 32,500 1,770 Climbing Albuquerque Center
Thu 09:28:21 AM 35.3025 -108.3092 276° West 466 536 34,400 1,869 Climbing Albuquerque Center
Thu 09:29:22 AM 35.3172 -108.4817 276° West 459 528 36,300 1,623 Climbing Albuquerque Center
Thu 09:30:23 AM 35.3294 -108.6294 276° West 456 525 37,700 1,426 Climbing Albuquerque Center
Thu 09:31:24 AM 35.3417 -108.7764 276° West 453 521 39,200 1,131 Climbing Albuquerque Center
Thu 09:32:25 AM 35.3544 -108.9433 275° West 443 510 40,000 393 Climbing Albuquerque Center
Thu 09:33:26 AM 35.3658 -109.0875 276° West 442 509 40,000  Level Albuquerque Center
Thu 09:34:27 AM 35.3761 -109.2311 275° West 442 509 40,000  Level Albuquerque Center
Thu 09:35:28 AM 35.3897 -109.4008 276° West 444 511 40,000  Level Albuquerque Center
Thu 09:36:29 AM 35.3994 -109.5433 275° West 442 509 40,000  Level Albuquerque Center
Thu 09:37:31 AM 35.4083 -109.6886 274° West 442 509 40,000  Level Albuquerque Center
Thu 09:38:32 AM 35.4203 -109.8572 275° West 444 511 40,000  Level Albuquerque Center
Thu 09:39:33 AM 35.4294 -110.0022 274° West 445 512 40,000  Level Albuquerque Center
Thu 09:40:34 AM 35.4411 -110.1725 275° West 447 514 40,000  Level Albuquerque Center
Thu 09:41:35 AM 35.4508 -110.3208 275° West 452 520 40,000  Level Albuquerque Center
Thu 09:42:36 AM 35.4603 -110.4697 274° West 455 524 40,000  Level Albuquerque Center
Thu 09:43:38 AM 35.4719 -110.6428 275° West 455 524 40,000  Level Albuquerque Center
Thu 09:44:39 AM 35.4817 -110.7889 275° West 453 521 40,000  Level Albuquerque Center
Thu 09:45:40 AM 35.4914 -110.9350 275° West 450 518 40,000  Level Albuquerque Center
Thu 09:46:41 AM 35.5011 -111.1056 274° West 449 517 40,000  Level Albuquerque Center
Thu 09:47:42 AM 35.5106 -111.2511 275° West 448 516 40,000  Level Albuquerque Center
Thu 09:48:44 AM 35.5203 -111.4194 274° West 444 511 40,000  Level Albuquerque Center
Thu 09:49:45 AM 35.5283 -111.5583 274° West 453 521 40,000  Level Albuquerque Center
Thu 09:50:46 AM 35.5361 -111.7075 274° West 446 513 40,000  Level Albuquerque Center
Thu 09:51:48 AM 35.5522 -111.8564 278° West 447 514 40,000  Level Albuquerque Center
Thu 09:52:50 AM 35.5814 -112.0347 281° West 447 514 40,000  Level Los Angeles Center
Thu 09:53:50 AM 35.6067 -112.1817 282° West 446 513 40,000  Level Albuquerque Center
Thu 09:54:52 AM 35.6300 -112.3297 281° West 446 513 40,000  Level Albuquerque Center
Thu 09:55:53 AM 35.6522 -112.4753 281° West 443 510 40,000  Level Albuquerque Center
Thu 09:56:54 AM 35.6750 -112.6203 281° West 439 505 40,000  Level Albuquerque Center
Thu 09:57:56 AM 35.6972 -112.7656 281° West 439 505 40,000  Level Albuquerque Center
Thu 09:58:57 AM 35.7189 -112.9114 280° West 440 506 40,000  Level Albuquerque Center
Thu 10:00:03 AM 35.7414 -113.0611 281° West 439 505 40,000  Level Los Angeles Center
Thu 10:01:05 AM 35.7664 -113.2322 280° West 441 507 40,000  Level Los Angeles Center
Thu 10:02:07 AM 35.7881 -113.3789 280° West 442 509 40,000  Level Los Angeles Center
Thu 10:03:09 AM 35.8139 -113.5564 280° West 444 511 40,000  Level Los Angeles Center
Thu 10:04:10 AM 35.8103 -113.6931 268° West 427 491 40,000  Level Los Angeles Center
Thu 10:05:12 AM 35.8233 -113.8433 276° West 441 507 40,000  Level Los Angeles Center
Thu 10:06:13 AM 35.8439 -113.9647 282° West 446 513 40,000  Level Los Angeles Center
Thu 10:07:16 AM 35.8811 -114.1758 282° West 449 517 40,000  Level Los Angeles Center
Thu 10:08:17 AM 35.9067 -114.3242 282° West 442 509 40,000  Level Los Angeles Center
Thu 10:09:19 AM 35.9311 -114.4731 282° West 441 507 40,000  Level Los Angeles Center
Thu 10:10:33 AM 35.9558 -114.6211 282° West 439 505 40,000  Level Los Angeles Center
Thu 10:11:35 AM 35.9836 -114.7981 281° West 437 503 40,000  Level Los Angeles Center
Thu 10:12:37 AM 36.0300 -114.9406 292° West 445 512 40,000  Level Los Angeles Center
Thu 10:13:51 AM 36.0903 -115.0786 298° West 455 524 40,000  Level Los Angeles Center
Thu 10:14:53 AM 36.1753 -115.2714 299° West 457 526 40,000  Level Los Angeles Center
Thu 10:15:57 AM 36.2342 -115.4081 298° West 450 518 40,000  Level Los Angeles Center
Thu 10:16:57 AM 36.2958 -115.5483 299° West 450 518 40,000  Level Los Angeles Center
Thu 10:17:59 AM 36.3592 -115.7025 297° West 463 533 40,000  Level Los Angeles Center
Thu 10:19:13 AM 36.4183 -115.8381 299° West 451 519 40,000  Level Los Angeles Center
Thu 10:20:19 AM 36.4794 -115.9917 296° West 444 511 40,000  Level Los Angeles Center
Thu 10:21:17 AM 36.5244 -116.1339 292° West 442 509 40,000  Level Los Angeles Center
Thu 10:22:19 AM 36.5783 -116.3039 292° West 440 506 40,000  Level Los Angeles Center
Thu 10:23:21 AM 36.6236 -116.4456 292° West 440 506 40,000  Level Los Angeles Center
Thu 10:24:23 AM 36.6683 -116.5878 291° West 440 506 40,000  Level Los Angeles Center
Thu 10:25:25 AM 36.7131 -116.7289 292° West 439 505 40,000  Level Los Angeles Center
Thu 10:26:27 AM 36.7575 -116.8717 291° West 440 506 40,000  Level Los Angeles Center
Thu 10:27:29 AM 36.8022 -117.0164 291° West 444 511 40,000  Level Los Angeles Center
Thu 10:28:31 AM 36.8472 -117.1589 292° West 442 509 40,000  Level Los Angeles Center
Thu 10:29:24 AM 36.8903 -117.3047 290° West 445 512 40,000  Level Oakland Center
Thu 10:30:25 AM 36.9342 -117.4469 291° West 439 505 40,000  Level Oakland Center
Thu 10:31:26 AM 36.9778 -117.5892 291° West 437 503 40,000  Level Oakland Center
Thu 10:32:27 AM 37.0208 -117.7325 291° West 437 503 40,000  Level Oakland Center
Thu 10:33:29 AM 37.0647 -117.8753 291° West 438 504 40,000  Level Oakland Center
Thu 10:34:30 AM 37.1069 -118.0172 290° West 435 501 40,000  Level Oakland Center
Thu 10:35:31 AM 37.1503 -118.1597 291° West 436 502 40,000  Level Oakland Center
Thu 10:36:32 AM 37.1933 -118.3047 290° West 439 505 40,000  Level Oakland Center
Thu 10:37:34 AM 37.2361 -118.4478 291° West 439 505 40,000  Level Oakland Center
Thu 10:38:35 AM 37.2811 -118.6042 290° West 439 505 40,000 -49 Level Oakland Center
Thu 10:39:36 AM 37.3239 -118.7489 290° West 443 510 39,900 -537 Descending Oakland Center
Thu 10:40:38 AM 37.3653 -118.8906 290° West 437 503 38,900 -1,268 Descending Oakland Center
Thu 10:41:39 AM 37.4072 -119.0392 290° West 446 513 37,300 -1,918 Descending Oakland Center
Thu 10:42:40 AM 37.4575 -119.2131 290° West 445 512 35,000 -1,610 Descending Oakland Center
Thu 10:43:42 AM 37.5008 -119.3631 290° West 452 520 34,000 -488 Descending Oakland Center
Thu 10:44:43 AM 37.5453 -119.5183 290° West 455 524 34,000  Level Oakland Center
Thu 10:45:44 AM 37.5881 -119.6686 290° West 455 524 34,000  Level Oakland Center
Thu 10:46:45 AM 37.6300 -119.8167 290° West 452 520 34,000  Level Oakland Center
Thu 10:47:47 AM 37.6725 -119.9689 289° West 456 525 34,000 -341 Level Oakland Center
Thu 10:48:48 AM 37.7136 -120.1192 289° West 452 520 33,300 -1,672 Descending Oakland Center
Thu 10:49:49 AM 37.7564 -120.2683 290° West 450 518 30,600 -2,508 Descending Oakland Center
Thu 10:50:50 AM 37.7961 -120.4178 289° West 447 514 28,200 -2,341 Descending Oakland Center
Thu 10:51:52 AM 37.8358 -120.5592 290° West 428 493 25,800 -1,627 Descending Oakland Center
Thu 10:52:48 AM 37.8667 -120.7000 286° West 390 449 25,000 -1,138 Descending Northern Cal TRACON
Thu 10:53:48 AM 37.8500 -120.8333 261° West 385 443 23,600 -1,700 Descending Northern Cal TRACON
Thu 10:54:48 AM 37.8500 -120.9833 270° West 363 418 21,600 -2,100 Descending Northern Cal TRACON
Thu 10:55:48 AM 37.8167 -121.0833 247° West 358 412 19,400 -2,263 Descending Northern Cal TRACON
Thu 10:56:42 AM 37.8000 -121.2000 260° West 386 444 17,300 -2,368 Descending Northern Cal TRACON
Thu 10:57:42 AM 37.7667 -121.3167 250° West 342 394 14,900 -2,474 Descending Northern Cal TRACON
Thu 10:58:36 AM 37.7333 -121.4000 243° Southwest 329 379 12,600 -2,474 Descending Northern Cal TRACON
Thu 10:59:36 AM 37.7000 -121.5167 250° West 324 373 10,200 -1,650 Descending Northern Cal TRACON
Thu 11:00:36 AM 37.6667 -121.6000 243° Southwest 287 330 9,300 -1,200 Descending Northern Cal TRACON
Thu 11:01:36 AM 37.6500 -121.7000 258° West 277 319 7,800 -1,368 Descending Northern Cal TRACON
Thu 11:02:30 AM 37.6167 -121.7833 243° Southwest 265 305 6,700 -1,000 Descending Northern Cal TRACON
Thu 11:03:30 AM 37.5833 -121.8500 238° Southwest 242 278 5,900 -947 Descending Northern Cal TRACON
Thu 11:04:24 AM 37.5667 -121.9167 253° West 234 269 4,900 -1,000 Descending Northern Cal TRACON
Thu 11:05:24 AM 37.5667 -122.0000 270° West 215 247 4,000 -737 Descending Northern Cal TRACON
Thu 11:06:18 AM 37.5833 -122.0500 293° West 181 208 3,500 -789 Descending Northern Cal TRACON
Thu 11:07:18 AM 37.6167 -122.1000 310° West 170 196 2,500 -900 Descending Northern Cal TRACON
Thu 11:08:18 AM 37.6500 -122.1333 322° Northwest 131 151 1,700 -750 Descending Northern Cal TRACON
Thu 11:09:18 AM 37.6667 -122.1667 302° West 130 150 1,000 -700 Descending Northern Cal TRACON
Thu 11:10:18 AM 37.7000 -122.2000 322° Northwest 128 147 300 -700 Descending Northern Cal TRACON
Thu 11:13:00 AM 37.7167 -122.2167 270° West  Level FlightAware Approximate

Login

Don't have an account? Register now (free) for customized features, flight alerts, and more!